sensor_id;sensor_type;location;lat;lon;timestamp;temperature;humidity
7159;DHT22;63175;52.374;13.132;2022-11-15T00:01:16;6.90;99.90
7159;DHT22;63175;52.374;13.132;2022-11-15T00:03:43;6.90;99.90
7159;DHT22;63175;52.374;13.132;2022-11-15T00:06:12;6.90;99.90
7159;DHT22;63175;52.374;13.132;2022-11-15T00:08:39;6.90;99.90
7159;DHT22;63175;52.374;13.132;2022-11-15T00:11:05;6.80;99.90
7159;DHT22;63175;52.374;13.132;2022-11-15T00:13:32;6.90;99.90
7159;DHT22;63175;52.374;13.132;2022-11-15T00:16:00;6.80;99.90
7159;DHT22;63175;52.374;13.132;2022-11-15T00:18:28;6.90;99.90
7159;DHT22;63175;52.374;13.132;2022-11-15T00:20:55;6.80;99.90
7159;DHT22;63175;52.374;13.132;2022-11-15T00:23:23;6.80;99.90
7159;DHT22;63175;52.374;13.132;2022-11-15T00:25:55;6.90;99.90
7159;DHT22;63175;52.374;13.132;2022-11-15T00:28:23;6.80;99.90
7159;DHT22;63175;52.374;13.132;2022-11-15T00:30:50;6.80;99.90
7159;DHT22;63175;52.374;13.132;2022-11-15T00:33:17;6.80;99.90
7159;DHT22;63175;52.374;13.132;2022-11-15T00:35:44;6.80;99.90
7159;DHT22;63175;52.374;13.132;2022-11-15T00:38:11;6.80;99.90
7159;DHT22;63175;52.374;13.132;2022-11-15T00:40:39;6.80;99.90
7159;DHT22;63175;52.374;13.132;2022-11-15T00:43:06;6.70;99.90
7159;DHT22;63175;52.374;13.132;2022-11-15T00:45:32;6.70;99.90
7159;DHT22;63175;52.374;13.132;2022-11-15T00:47:59;6.70;99.90
7159;DHT22;63175;52.374;13.132;2022-11-15T00:50:26;6.70;99.90
7159;DHT22;63175;52.374;13.132;2022-11-15T00:52:53;6.70;99.90
7159;DHT22;63175;52.374;13.132;2022-11-15T00:55:20;6.70;99.90
7159;DHT22;63175;52.374;13.132;2022-11-15T00:57:48;6.70;99.90
7159;DHT22;63175;52.374;13.132;2022-11-15T01:00:16;6.70;99.90
7159;DHT22;63175;52.374;13.132;2022-11-15T01:02:43;6.70;99.90
7159;DHT22;63175;52.374;13.132;2022-11-15T01:05:10;6.70;99.90
7159;DHT22;63175;52.374;13.132;2022-11-15T01:07:36;6.70;99.90
7159;DHT22;63175;52.374;13.132;2022-11-15T01:10:04;6.70;99.90
7159;DHT22;63175;52.374;13.132;2022-11-15T01:12:31;6.60;99.90
7159;DHT22;63175;52.374;13.132;2022-11-15T01:15:00;6.60;99.90
7159;DHT22;63175;52.374;13.132;2022-11-15T01:17:27;6.60;99.90
7159;DHT22;63175;52.374;13.132;2022-11-15T01:19:54;6.60;99.90
7159;DHT22;63175;52.374;13.132;2022-11-15T01:22:20;6.70;99.90
7159;DHT22;63175;52.374;13.132;2022-11-15T01:24:49;6.70;99.90
7159;DHT22;63175;52.374;13.132;2022-11-15T01:27:16;6.70;99.90
7159;DHT22;63175;52.374;13.132;2022-11-15T01:29:43;6.70;99.90
7159;DHT22;63175;52.374;13.132;2022-11-15T01:32:11;6.70;99.90
7159;DHT22;63175;52.374;13.132;2022-11-15T01:34:38;6.70;99.90
7159;DHT22;63175;52.374;13.132;2022-11-15T01:37:05;6.70;99.90
7159;DHT22;63175;52.374;13.132;2022-11-15T01:39:32;6.70;99.90
7159;DHT22;63175;52.374;13.132;2022-11-15T01:41:58;6.70;99.90
7159;DHT22;63175;52.374;13.132;2022-11-15T01:44:39;6.70;99.90
7159;DHT22;63175;52.374;13.132;2022-11-15T01:47:09;6.70;99.90
7159;DHT22;63175;52.374;13.132;2022-11-15T01:49:41;6.70;99.90
7159;DHT22;63175;52.374;13.132;2022-11-15T01:52:14;6.60;99.90
7159;DHT22;63175;52.374;13.132;2022-11-15T01:54:43;6.60;99.90
7159;DHT22;63175;52.374;13.132;2022-11-15T01:57:12;6.60;99.90
7159;DHT22;63175;52.374;13.132;2022-11-15T01:59:43;6.60;99.90
7159;DHT22;63175;52.374;13.132;2022-11-15T02:02:11;6.60;99.90
7159;DHT22;63175;52.374;13.132;2022-11-15T02:04:42;6.60;99.90
7159;DHT22;63175;52.374;13.132;2022-11-15T02:07:11;6.60;99.90
7159;DHT22;63175;52.374;13.132;2022-11-15T02:09:39;6.60;99.90
7159;DHT22;63175;52.374;13.132;2022-11-15T02:12:07;6.60;99.90
7159;DHT22;63175;52.374;13.132;2022-11-15T02:14:36;6.60;99.90
7159;DHT22;63175;52.374;13.132;2022-11-15T02:17:13;6.60;99.90
7159;DHT22;63175;52.374;13.132;2022-11-15T02:20:13;6.60;99.90
7159;DHT22;63175;52.374;13.132;2022-11-15T02:22:50;6.70;99.90
7159;DHT22;63175;52.374;13.132;2022-11-15T02:25:36;6.70;99.90
7159;DHT22;63175;52.374;13.132;2022-11-15T02:28:21;6.70;99.90
7159;DHT22;63175;52.374;13.132;2022-11-15T02:30:54;6.70;99.90
7159;DHT22;63175;52.374;13.132;2022-11-15T02:33:31;6.60;99.90
7159;DHT22;63175;52.374;13.132;2022-11-15T02:36:01;6.60;99.90
7159;DHT22;63175;52.374;13.132;2022-11-15T02:38:34;6.60;99.90
7159;DHT22;63175;52.374;13.132;2022-11-15T02:41:06;6.60;99.90
7159;DHT22;63175;52.374;13.132;2022-11-15T02:43:38;6.60;99.90
7159;DHT22;63175;52.374;13.132;2022-11-15T02:46:31;6.60;99.90
7159;DHT22;63175;52.374;13.132;2022-11-15T02:49:17;6.60;99.90
7159;DHT22;63175;52.374;13.132;2022-11-15T02:51:46;6.60;99.90
7159;DHT22;63175;52.374;13.132;2022-11-15T02:54:17;6.60;99.90
7159;DHT22;63175;52.374;13.132;2022-11-15T02:56:45;6.60;99.90
7159;DHT22;63175;52.374;13.132;2022-11-15T03:02:17;6.60;99.90
7159;DHT22;63175;52.374;13.132;2022-11-15T03:04:51;6.70;99.90
7159;DHT22;63175;52.374;13.132;2022-11-15T03:07:24;6.70;99.90
7159;DHT22;63175;52.374;13.132;2022-11-15T03:09:59;6.70;99.90
7159;DHT22;63175;52.374;13.132;2022-11-15T03:12:33;6.70;99.90
7159;DHT22;63175;52.374;13.132;2022-11-15T03:15:06;6.70;99.90
7159;DHT22;63175;52.374;13.132;2022-11-15T03:17:38;6.80;99.90
7159;DHT22;63175;52.374;13.132;2022-11-15T03:20:08;6.80;99.90
7159;DHT22;63175;52.374;13.132;2022-11-15T03:22:39;6.80;99.90
7159;DHT22;63175;52.374;13.132;2022-11-15T03:25:11;6.80;99.90
7159;DHT22;63175;52.374;13.132;2022-11-15T03:27:41;6.80;99.90
7159;DHT22;63175;52.374;13.132;2022-11-15T03:30:10;6.80;99.90
7159;DHT22;63175;52.374;13.132;2022-11-15T03:32:44;6.80;99.90
7159;DHT22;63175;52.374;13.132;2022-11-15T03:35:14;6.70;99.90
7159;DHT22;63175;52.374;13.132;2022-11-15T03:37:45;6.70;99.90
7159;DHT22;63175;52.374;13.132;2022-11-15T03:40:13;6.70;99.90
7159;DHT22;63175;52.374;13.132;2022-11-15T03:42:44;6.70;99.90
7159;DHT22;63175;52.374;13.132;2022-11-15T03:45:14;6.70;99.90
7159;DHT22;63175;52.374;13.132;2022-11-15T03:47:48;6.80;99.90
7159;DHT22;63175;52.374;13.132;2022-11-15T03:50:18;6.80;99.90
7159;DHT22;63175;52.374;13.132;2022-11-15T03:52:46;6.80;99.90
7159;DHT22;63175;52.374;13.132;2022-11-15T03:55:17;6.80;99.90
7159;DHT22;63175;52.374;13.132;2022-11-15T03:57:44;6.70;99.90
7159;DHT22;63175;52.374;13.132;2022-11-15T04:00:13;6.70;99.90
7159;DHT22;63175;52.374;13.132;2022-11-15T04:02:39;6.70;99.90
7159;DHT22;63175;52.374;13.132;2022-11-15T04:05:08;6.60;99.90
7159;DHT22;63175;52.374;13.132;2022-11-15T04:07:35;6.60;99.90
7159;DHT22;63175;52.374;13.132;2022-11-15T04:10:02;6.60;99.90
7159;DHT22;63175;52.374;13.132;2022-11-15T04:12:29;6.60;99.90
7159;DHT22;63175;52.374;13.132;2022-11-15T04:15:00;6.60;99.90
7159;DHT22;63175;52.374;13.132;2022-11-15T04:17:38;6.50;99.90
7159;DHT22;63175;52.374;13.132;2022-11-15T04:20:10;6.60;99.90
7159;DHT22;63175;52.374;13.132;2022-11-15T04:22:55;6.50;99.90
7159;DHT22;63175;52.374;13.132;2022-11-15T04:25:39;6.60;99.90
7159;DHT22;63175;52.374;13.132;2022-11-15T04:28:06;6.60;99.90
7159;DHT22;63175;52.374;13.132;2022-11-15T04:30:33;6.60;99.90
7159;DHT22;63175;52.374;13.132;2022-11-15T04:33:00;6.60;99.90
7159;DHT22;63175;52.374;13.132;2022-11-15T04:35:29;6.60;99.90
7159;DHT22;63175;52.374;13.132;2022-11-15T04:37:57;6.60;99.90
7159;DHT22;63175;52.374;13.132;2022-11-15T04:40:23;6.60;99.90
7159;DHT22;63175;52.374;13.132;2022-11-15T04:42:50;6.60;99.90
7159;DHT22;63175;52.374;13.132;2022-11-15T04:45:17;6.60;99.90
7159;DHT22;63175;52.374;13.132;2022-11-15T04:47:44;6.60;99.90
7159;DHT22;63175;52.374;13.132;2022-11-15T04:50:12;6.60;99.90
7159;DHT22;63175;52.374;13.132;2022-11-15T04:52:41;6.60;99.90
7159;DHT22;63175;52.374;13.132;2022-11-15T04:55:09;6.60;99.90
7159;DHT22;63175;52.374;13.132;2022-11-15T04:57:36;6.70;99.90
7159;DHT22;63175;52.374;13.132;2022-11-15T05:00:04;6.60;99.90
7159;DHT22;63175;52.374;13.132;2022-11-15T05:02:32;6.60;99.90
7159;DHT22;63175;52.374;13.132;2022-11-15T05:05:12;6.60;99.90
7159;DHT22;63175;52.374;13.132;2022-11-15T05:07:41;6.70;99.90
7159;DHT22;63175;52.374;13.132;2022-11-15T05:10:08;6.70;99.90
7159;DHT22;63175;52.374;13.132;2022-11-15T05:12:35;6.70;99.90
7159;DHT22;63175;52.374;13.132;2022-11-15T05:15:03;6.70;99.90
7159;DHT22;63175;52.374;13.132;2022-11-15T05:17:30;6.70;99.90
7159;DHT22;63175;52.374;13.132;2022-11-15T05:19:57;6.60;99.90
7159;DHT22;63175;52.374;13.132;2022-11-15T05:22:24;6.60;99.90
7159;DHT22;63175;52.374;13.132;2022-11-15T05:24:52;6.60;99.90
7159;DHT22;63175;52.374;13.132;2022-11-15T05:27:19;6.60;99.90
7159;DHT22;63175;52.374;13.132;2022-11-15T05:29:46;6.60;99.90
7159;DHT22;63175;52.374;13.132;2022-11-15T05:32:13;6.60;99.90
7159;DHT22;63175;52.374;13.132;2022-11-15T05:34:40;6.60;99.90
7159;DHT22;63175;52.374;13.132;2022-11-15T05:37:07;6.50;99.90
7159;DHT22;63175;52.374;13.132;2022-11-15T05:39:34;6.50;99.90
7159;DHT22;63175;52.374;13.132;2022-11-15T05:42:07;6.50;99.90
7159;DHT22;63175;52.374;13.132;2022-11-15T05:44:36;6.50;99.90
7159;DHT22;63175;52.374;13.132;2022-11-15T05:47:07;6.40;99.90
7159;DHT22;63175;52.374;13.132;2022-11-15T05:49:36;6.40;99.90
7159;DHT22;63175;52.374;13.132;2022-11-15T05:52:07;6.40;99.90
7159;DHT22;63175;52.374;13.132;2022-11-15T05:54:36;6.40;99.90
7159;DHT22;63175;52.374;13.132;2022-11-15T05:57:05;6.30;99.90
7159;DHT22;63175;52.374;13.132;2022-11-15T05:59:32;6.30;99.90
7159;DHT22;63175;52.374;13.132;2022-11-15T06:02:00;6.30;99.90
7159;DHT22;63175;52.374;13.132;2022-11-15T06:04:27;6.30;99.90
7159;DHT22;63175;52.374;13.132;2022-11-15T06:06:54;6.30;99.90
7159;DHT22;63175;52.374;13.132;2022-11-15T06:09:21;6.40;99.90
7159;DHT22;63175;52.374;13.132;2022-11-15T06:11:47;6.40;99.90
7159;DHT22;63175;52.374;13.132;2022-11-15T06:14:16;6.40;99.90
7159;DHT22;63175;52.374;13.132;2022-11-15T06:16:43;6.40;99.90
7159;DHT22;63175;52.374;13.132;2022-11-15T06:19:10;6.40;99.90
7159;DHT22;63175;52.374;13.132;2022-11-15T06:21:37;6.40;99.90
7159;DHT22;63175;52.374;13.132;2022-11-15T06:24:05;6.30;99.90
7159;DHT22;63175;52.374;13.132;2022-11-15T06:26:32;6.30;99.90
7159;DHT22;63175;52.374;13.132;2022-11-15T06:28:59;6.30;99.90
7159;DHT22;63175;52.374;13.132;2022-11-15T06:31:27;6.30;99.90
7159;DHT22;63175;52.374;13.132;2022-11-15T06:33:54;6.30;99.90
7159;DHT22;63175;52.374;13.132;2022-11-15T06:36:21;6.30;99.90
7159;DHT22;63175;52.374;13.132;2022-11-15T06:38:48;6.30;99.90
7159;DHT22;63175;52.374;13.132;2022-11-15T06:41:15;6.30;99.90
7159;DHT22;63175;52.374;13.132;2022-11-15T06:43:43;6.20;99.90
7159;DHT22;63175;52.374;13.132;2022-11-15T06:46:10;6.20;99.90
7159;DHT22;63175;52.374;13.132;2022-11-15T06:48:38;6.20;99.90
7159;DHT22;63175;52.374;13.132;2022-11-15T06:51:05;6.20;99.90
7159;DHT22;63175;52.374;13.132;2022-11-15T06:53:33;6.20;99.90
7159;DHT22;63175;52.374;13.132;2022-11-15T06:56:00;6.20;99.90
7159;DHT22;63175;52.374;13.132;2022-11-15T06:58:27;6.20;99.90
7159;DHT22;63175;52.374;13.132;2022-11-15T07:00:58;6.30;99.90
7159;DHT22;63175;52.374;13.132;2022-11-15T07:03:25;6.30;99.90
7159;DHT22;63175;52.374;13.132;2022-11-15T07:05:54;6.30;99.90
7159;DHT22;63175;52.374;13.132;2022-11-15T07:08:22;6.40;99.90
7159;DHT22;63175;52.374;13.132;2022-11-15T07:10:49;6.40;99.90
7159;DHT22;63175;52.374;13.132;2022-11-15T07:13:16;6.40;99.90
7159;DHT22;63175;52.374;13.132;2022-11-15T07:15:42;6.50;99.90
7159;DHT22;63175;52.374;13.132;2022-11-15T07:18:09;6.50;99.90
7159;DHT22;63175;52.374;13.132;2022-11-15T07:20:36;6.60;99.90
7159;DHT22;63175;52.374;13.132;2022-11-15T07:23:05;6.60;99.90
7159;DHT22;63175;52.374;13.132;2022-11-15T07:25:32;6.60;99.90
7159;DHT22;63175;52.374;13.132;2022-11-15T07:28:00;6.70;99.90
7159;DHT22;63175;52.374;13.132;2022-11-15T07:30:27;6.80;99.90
7159;DHT22;63175;52.374;13.132;2022-11-15T07:32:54;6.90;99.90
7159;DHT22;63175;52.374;13.132;2022-11-15T07:35:21;7.00;99.90
7159;DHT22;63175;52.374;13.132;2022-11-15T07:37:58;7.00;99.90
7159;DHT22;63175;52.374;13.132;2022-11-15T07:40:27;7.10;99.90
7159;DHT22;63175;52.374;13.132;2022-11-15T07:42:59;7.30;99.90
7159;DHT22;63175;52.374;13.132;2022-11-15T07:45:26;7.30;99.90
7159;DHT22;63175;52.374;13.132;2022-11-15T07:47:53;7.40;99.90
7159;DHT22;63175;52.374;13.132;2022-11-15T07:50:21;7.50;99.90
7159;DHT22;63175;52.374;13.132;2022-11-15T07:52:53;7.60;99.90
7159;DHT22;63175;52.374;13.132;2022-11-15T07:55:20;7.70;99.90
7159;DHT22;63175;52.374;13.132;2022-11-15T07:57:49;7.80;99.90
7159;DHT22;63175;52.374;13.132;2022-11-15T08:00:17;8.00;99.90
7159;DHT22;63175;52.374;13.132;2022-11-15T08:02:44;8.10;99.90
7159;DHT22;63175;52.374;13.132;2022-11-15T08:05:11;8.20;99.90
7159;DHT22;63175;52.374;13.132;2022-11-15T08:07:38;8.30;99.90
7159;DHT22;63175;52.374;13.132;2022-11-15T08:10:06;8.40;99.90
7159;DHT22;63175;52.374;13.132;2022-11-15T08:12:33;8.50;99.90
7159;DHT22;63175;52.374;13.132;2022-11-15T08:15:02;8.70;99.90
7159;DHT22;63175;52.374;13.132;2022-11-15T08:17:29;8.80;99.90
7159;DHT22;63175;52.374;13.132;2022-11-15T08:19:58;8.90;99.90
7159;DHT22;63175;52.374;13.132;2022-11-15T08:22:25;9.00;99.90
7159;DHT22;63175;52.374;13.132;2022-11-15T08:24:52;9.10;99.90
7159;DHT22;63175;52.374;13.132;2022-11-15T08:27:19;9.20;99.90
7159;DHT22;63175;52.374;13.132;2022-11-15T08:29:48;9.40;99.90
7159;DHT22;63175;52.374;13.132;2022-11-15T08:32:16;9.50;99.90
7159;DHT22;63175;52.374;13.132;2022-11-15T08:34:43;9.60;99.90
7159;DHT22;63175;52.374;13.132;2022-11-15T08:37:10;9.70;99.90
7159;DHT22;63175;52.374;13.132;2022-11-15T08:39:37;9.80;99.90
7159;DHT22;63175;52.374;13.132;2022-11-15T08:42:04;9.90;99.90
7159;DHT22;63175;52.374;13.132;2022-11-15T08:44:31;10.00;99.90
7159;DHT22;63175;52.374;13.132;2022-11-15T08:46:58;10.10;99.90
7159;DHT22;63175;52.374;13.132;2022-11-15T08:49:26;10.20;99.90
7159;DHT22;63175;52.374;13.132;2022-11-15T08:51:53;10.20;99.90
7159;DHT22;63175;52.374;13.132;2022-11-15T08:54:19;10.40;99.90
7159;DHT22;63175;52.374;13.132;2022-11-15T08:56:46;10.40;99.90
7159;DHT22;63175;52.374;13.132;2022-11-15T08:59:13;10.60;99.90
7159;DHT22;63175;52.374;13.132;2022-11-15T09:01:40;10.70;99.90
7159;DHT22;63175;52.374;13.132;2022-11-15T09:04:07;10.80;99.90
7159;DHT22;63175;52.374;13.132;2022-11-15T09:06:35;10.90;99.90
7159;DHT22;63175;52.374;13.132;2022-11-15T09:09:03;11.00;99.90
7159;DHT22;63175;52.374;13.132;2022-11-15T09:11:30;11.20;99.90
7159;DHT22;63175;52.374;13.132;2022-11-15T09:13:57;11.30;99.90
7159;DHT22;63175;52.374;13.132;2022-11-15T09:16:23;11.40;99.90
7159;DHT22;63175;52.374;13.132;2022-11-15T09:18:50;11.50;99.90
7159;DHT22;63175;52.374;13.132;2022-11-15T09:21:17;11.70;99.90
7159;DHT22;63175;52.374;13.132;2022-11-15T09:23:45;11.80;99.90
7159;DHT22;63175;52.374;13.132;2022-11-15T09:26:13;11.90;99.90
7159;DHT22;63175;52.374;13.132;2022-11-15T09:28:39;12.00;99.90
7159;DHT22;63175;52.374;13.132;2022-11-15T09:31:07;12.10;99.90
7159;DHT22;63175;52.374;13.132;2022-11-15T09:33:35;12.10;99.90
7159;DHT22;63175;52.374;13.132;2022-11-15T09:36:03;12.20;99.90
7159;DHT22;63175;52.374;13.132;2022-11-15T09:38:31;12.30;99.90
7159;DHT22;63175;52.374;13.132;2022-11-15T09:44:21;12.50;99.90
7159;DHT22;63175;52.374;13.132;2022-11-15T09:46:55;12.60;99.90
7159;DHT22;63175;52.374;13.132;2022-11-15T09:49:24;12.60;99.90
7159;DHT22;63175;52.374;13.132;2022-11-15T09:51:53;12.70;99.90
7159;DHT22;63175;52.374;13.132;2022-11-15T09:54:29;12.80;99.90
7159;DHT22;63175;52.374;13.132;2022-11-15T09:57:05;12.90;99.90
7159;DHT22;63175;52.374;13.132;2022-11-15T09:59:45;13.00;99.90
7159;DHT22;63175;52.374;13.132;2022-11-15T10:02:23;13.10;99.90
7159;DHT22;63175;52.374;13.132;2022-11-15T10:04:57;13.20;99.90
7159;DHT22;63175;52.374;13.132;2022-11-15T10:07:28;13.30;99.90
7159;DHT22;63175;52.374;13.132;2022-11-15T10:10:02;13.40;99.90
7159;DHT22;63175;52.374;13.132;2022-11-15T10:12:31;13.50;99.90
7159;DHT22;63175;52.374;13.132;2022-11-15T10:15:02;13.60;99.90
7159;DHT22;63175;52.374;13.132;2022-11-15T10:18:00;13.70;99.90
7159;DHT22;63175;52.374;13.132;2022-11-15T10:20:33;13.80;99.90
7159;DHT22;63175;52.374;13.132;2022-11-15T10:23:06;13.90;99.90
7159;DHT22;63175;52.374;13.132;2022-11-15T10:25:36;13.90;99.90
7159;DHT22;63175;52.374;13.132;2022-11-15T10:28:11;14.00;99.90
7159;DHT22;63175;52.374;13.132;2022-11-15T10:30:41;14.00;99.90
7159;DHT22;63175;52.374;13.132;2022-11-15T10:33:23;14.10;99.90
7159;DHT22;63175;52.374;13.132;2022-11-15T10:36:19;14.20;99.90
7159;DHT22;63175;52.374;13.132;2022-11-15T10:38:52;14.30;99.90
7159;DHT22;63175;52.374;13.132;2022-11-15T10:41:22;14.30;99.90
7159;DHT22;63175;52.374;13.132;2022-11-15T10:44:08;14.30;99.90
7159;DHT22;63175;52.374;13.132;2022-11-15T10:46:39;14.40;99.90
7159;DHT22;63175;52.374;13.132;2022-11-15T10:49:13;14.40;99.90
7159;DHT22;63175;52.374;13.132;2022-11-15T10:51:43;14.50;99.90
7159;DHT22;63175;52.374;13.132;2022-11-15T10:54:12;14.50;99.90
7159;DHT22;63175;52.374;13.132;2022-11-15T10:56:41;14.60;99.90
7159;DHT22;63175;52.374;13.132;2022-11-15T10:59:17;14.70;99.90
7159;DHT22;63175;52.374;13.132;2022-11-15T11:01:51;14.80;99.90
7159;DHT22;63175;52.374;13.132;2022-11-15T11:04:25;14.80;99.90
7159;DHT22;63175;52.374;13.132;2022-11-15T11:06:59;14.90;99.90
7159;DHT22;63175;52.374;13.132;2022-11-15T11:09:32;14.90;99.90
7159;DHT22;63175;52.374;13.132;2022-11-15T11:12:00;15.00;99.90
7159;DHT22;63175;52.374;13.132;2022-11-15T11:14:34;15.10;99.90
7159;DHT22;63175;52.374;13.132;2022-11-15T11:17:26;15.20;99.90
7159;DHT22;63175;52.374;13.132;2022-11-15T11:20:00;15.30;99.90
7159;DHT22;63175;52.374;13.132;2022-11-15T11:22:34;15.40;99.90
7159;DHT22;63175;52.374;13.132;2022-11-15T11:25:18;15.50;99.90
7159;DHT22;63175;52.374;13.132;2022-11-15T11:28:01;15.60;99.90
7159;DHT22;63175;52.374;13.132;2022-11-15T11:30:43;15.60;99.80
7159;DHT22;63175;52.374;13.132;2022-11-15T11:33:18;15.70;99.80
7159;DHT22;63175;52.374;13.132;2022-11-15T11:36:08;15.80;99.60
7159;DHT22;63175;52.374;13.132;2022-11-15T11:38:52;15.90;99.40
7159;DHT22;63175;52.374;13.132;2022-11-15T11:41:49;16.00;99.30
7159;DHT22;63175;52.374;13.132;2022-11-15T11:44:27;16.00;99.10
7159;DHT22;63175;52.374;13.132;2022-11-15T11:47:03;16.10;99.20
7159;DHT22;63175;52.374;13.132;2022-11-15T11:49:43;16.20;98.80
7159;DHT22;63175;52.374;13.132;2022-11-15T11:52:15;16.30;98.70
7159;DHT22;63175;52.374;13.132;2022-11-15T11:54:53;16.40;98.20
7159;DHT22;63175;52.374;13.132;2022-11-15T11:57:34;16.50;97.90
7159;DHT22;63175;52.374;13.132;2022-11-15T12:00:14;16.60;98.00
7159;DHT22;63175;52.374;13.132;2022-11-15T12:02:48;16.60;97.60
7159;DHT22;63175;52.374;13.132;2022-11-15T12:05:22;16.70;97.20
7159;DHT22;63175;52.374;13.132;2022-11-15T12:07:59;16.70;97.00
7159;DHT22;63175;52.374;13.132;2022-11-15T12:10:32;16.80;97.10
7159;DHT22;63175;52.374;13.132;2022-11-15T12:13:05;16.80;97.00
7159;DHT22;63175;52.374;13.132;2022-11-15T12:15:43;16.80;96.90
7159;DHT22;63175;52.374;13.132;2022-11-15T12:18:15;16.90;97.60
7159;DHT22;63175;52.374;13.132;2022-11-15T12:20:51;16.90;97.50
7159;DHT22;63175;52.374;13.132;2022-11-15T12:23:22;17.00;97.30
7159;DHT22;63175;52.374;13.132;2022-11-15T12:25:52;16.90;96.70
7159;DHT22;63175;52.374;13.132;2022-11-15T12:28:28;17.00;96.50
7159;DHT22;63175;52.374;13.132;2022-11-15T12:31:03;17.00;95.90
7159;DHT22;63175;52.374;13.132;2022-11-15T12:33:37;17.00;95.90
7159;DHT22;63175;52.374;13.132;2022-11-15T12:36:08;17.00;95.90
7159;DHT22;63175;52.374;13.132;2022-11-15T12:38:54;17.00;96.10
7159;DHT22;63175;52.374;13.132;2022-11-15T12:41:22;16.90;96.60
7159;DHT22;63175;52.374;13.132;2022-11-15T12:43:50;16.90;96.60
7159;DHT22;63175;52.374;13.132;2022-11-15T12:46:23;17.00;96.60
7159;DHT22;63175;52.374;13.132;2022-11-15T12:49:02;16.90;95.90
7159;DHT22;63175;52.374;13.132;2022-11-15T12:54:56;16.80;95.70
7159;DHT22;63175;52.374;13.132;2022-11-15T12:57:30;16.80;95.80
7159;DHT22;63175;52.374;13.132;2022-11-15T12:59:59;16.70;96.00
7159;DHT22;63175;52.374;13.132;2022-11-15T13:02:30;16.70;96.10
7159;DHT22;63175;52.374;13.132;2022-11-15T13:11:48;16.70;96.40
7159;DHT22;63175;52.374;13.132;2022-11-15T13:14:41;16.70;97.10
7159;DHT22;63175;52.374;13.132;2022-11-15T13:17:39;16.70;97.40
7159;DHT22;63175;52.374;13.132;2022-11-15T13:20:23;16.70;97.30
7159;DHT22;63175;52.374;13.132;2022-11-15T13:22:58;16.60;97.10
7159;DHT22;63175;52.374;13.132;2022-11-15T13:25:50;16.60;96.90
7159;DHT22;63175;52.374;13.132;2022-11-15T13:28:23;16.60;97.00
7159;DHT22;63175;52.374;13.132;2022-11-15T13:30:53;16.60;97.10
7159;DHT22;63175;52.374;13.132;2022-11-15T13:33:21;16.70;96.90
7159;DHT22;63175;52.374;13.132;2022-11-15T13:35:51;16.70;97.00
7159;DHT22;63175;52.374;13.132;2022-11-15T13:38:25;16.70;96.90
7159;DHT22;63175;52.374;13.132;2022-11-15T13:40:55;16.70;97.00
7159;DHT22;63175;52.374;13.132;2022-11-15T13:43:34;16.70;96.90
7159;DHT22;63175;52.374;13.132;2022-11-15T13:46:12;16.70;96.80
7159;DHT22;63175;52.374;13.132;2022-11-15T13:48:40;16.70;97.10
7159;DHT22;63175;52.374;13.132;2022-11-15T13:51:16;16.60;97.00
7159;DHT22;63175;52.374;13.132;2022-11-15T13:53:46;16.50;97.00
7159;DHT22;63175;52.374;13.132;2022-11-15T13:56:17;16.50;97.10
7159;DHT22;63175;52.374;13.132;2022-11-15T13:58:45;16.40;97.20
7159;DHT22;63175;52.374;13.132;2022-11-15T14:01:16;16.30;97.40
7159;DHT22;63175;52.374;13.132;2022-11-15T14:03:50;16.20;97.50
7159;DHT22;63175;52.374;13.132;2022-11-15T14:06:21;16.10;97.70
7159;DHT22;63175;52.374;13.132;2022-11-15T14:09:01;16.00;97.80
7159;DHT22;63175;52.374;13.132;2022-11-15T14:11:30;15.90;98.10
7159;DHT22;63175;52.374;13.132;2022-11-15T14:14:11;15.90;98.30
7159;DHT22;63175;52.374;13.132;2022-11-15T14:16:41;15.80;98.60
7159;DHT22;63175;52.374;13.132;2022-11-15T14:19:11;15.70;98.70
7159;DHT22;63175;52.374;13.132;2022-11-15T14:22:11;15.60;98.90
7159;DHT22;63175;52.374;13.132;2022-11-15T14:24:39;15.60;99.20
7159;DHT22;63175;52.374;13.132;2022-11-15T14:27:24;15.50;99.20
7159;DHT22;63175;52.374;13.132;2022-11-15T14:29:51;15.40;99.40
7159;DHT22;63175;52.374;13.132;2022-11-15T14:32:20;15.40;99.60
7159;DHT22;63175;52.374;13.132;2022-11-15T14:34:47;15.30;99.80
7159;DHT22;63175;52.374;13.132;2022-11-15T14:37:21;15.20;99.90
7159;DHT22;63175;52.374;13.132;2022-11-15T14:39:48;15.10;99.90
7159;DHT22;63175;52.374;13.132;2022-11-15T14:42:16;15.10;99.90
7159;DHT22;63175;52.374;13.132;2022-11-15T14:44:44;15.00;99.90
7159;DHT22;63175;52.374;13.132;2022-11-15T14:47:11;15.00;99.90
7159;DHT22;63175;52.374;13.132;2022-11-15T14:49:38;14.90;99.90
7159;DHT22;63175;52.374;13.132;2022-11-15T14:52:17;14.80;99.90
7159;DHT22;63175;52.374;13.132;2022-11-15T14:54:45;14.80;99.90
7159;DHT22;63175;52.374;13.132;2022-11-15T14:57:12;14.70;99.90
7159;DHT22;63175;52.374;13.132;2022-11-15T14:59:39;14.60;99.90
7159;DHT22;63175;52.374;13.132;2022-11-15T15:02:16;14.60;99.90
7159;DHT22;63175;52.374;13.132;2022-11-15T15:04:44;14.50;99.90
7159;DHT22;63175;52.374;13.132;2022-11-15T15:07:11;14.40;99.90
7159;DHT22;63175;52.374;13.132;2022-11-15T15:09:38;14.40;99.90
7159;DHT22;63175;52.374;13.132;2022-11-15T15:12:09;14.30;99.90
7159;DHT22;63175;52.374;13.132;2022-11-15T15:14:37;14.20;99.90
7159;DHT22;63175;52.374;13.132;2022-11-15T15:17:04;14.10;99.90
7159;DHT22;63175;52.374;13.132;2022-11-15T15:19:32;14.00;99.90
7159;DHT22;63175;52.374;13.132;2022-11-15T15:21:59;14.00;99.90
7159;DHT22;63175;52.374;13.132;2022-11-15T15:24:26;13.90;99.90
7159;DHT22;63175;52.374;13.132;2022-11-15T15:26:53;13.90;99.90
7159;DHT22;63175;52.374;13.132;2022-11-15T15:29:20;13.80;99.90
7159;DHT22;63175;52.374;13.132;2022-11-15T15:31:46;13.70;99.90
7159;DHT22;63175;52.374;13.132;2022-11-15T15:34:13;13.70;99.90
7159;DHT22;63175;52.374;13.132;2022-11-15T15:36:41;13.70;99.90
7159;DHT22;63175;52.374;13.132;2022-11-15T15:39:09;13.60;99.90
7159;DHT22;63175;52.374;13.132;2022-11-15T15:41:36;13.50;99.90
7159;DHT22;63175;52.374;13.132;2022-11-15T15:44:03;13.40;99.90
7159;DHT22;63175;52.374;13.132;2022-11-15T15:46:30;13.40;99.90
7159;DHT22;63175;52.374;13.132;2022-11-15T15:48:57;13.30;99.90
7159;DHT22;63175;52.374;13.132;2022-11-15T15:51:23;13.30;99.90
7159;DHT22;63175;52.374;13.132;2022-11-15T15:53:52;13.20;99.90
7159;DHT22;63175;52.374;13.132;2022-11-15T15:56:22;13.20;99.90
7159;DHT22;63175;52.374;13.132;2022-11-15T15:58:49;13.10;99.90
7159;DHT22;63175;52.374;13.132;2022-11-15T16:01:18;13.10;99.90
7159;DHT22;63175;52.374;13.132;2022-11-15T16:03:45;13.00;99.90
7159;DHT22;63175;52.374;13.132;2022-11-15T16:06:36;13.00;99.90
7159;DHT22;63175;52.374;13.132;2022-11-15T16:09:06;12.90;99.90
7159;DHT22;63175;52.374;13.132;2022-11-15T16:11:33;12.90;99.90
7159;DHT22;63175;52.374;13.132;2022-11-15T16:14:00;12.80;99.90
7159;DHT22;63175;52.374;13.132;2022-11-15T16:16:27;12.70;99.90
7159;DHT22;63175;52.374;13.132;2022-11-15T16:18:54;12.70;99.90